Time;durP1;ratioP1;P1;durP2;ratioP2;P2;SDS_P1;SDS_P2;PMS_P1;PMS_P2;Temp;Humidity;BMP_temperature;BMP_pressure;BME280_temperature;BME280_humidity;BME280_pressure;Samples;Min_cycle;Max_cycle;Signal;HPM_P1;HPM_P2
2021/06/18 00:00:28;;;;;;;15.73;2.60;;;14.30;99.90;;;;;;4954394;28;20391;-78
2021/06/18 07:33:17;;;;;;;18.45;4.22;;;16.40;99.90;;;;;;5065765;23;20046;-83
2021/06/18 07:35:43;;;;;;;16.13;2.90;;;16.50;99.90;;;;;;4998829;28;20052;-81
2021/06/18 07:38:10;;;;;;;16.65;3.70;;;16.50;99.90;;;;;;4983316;28;20093;-85
2021/06/18 07:40:38;;;;;;;16.92;3.53;;;16.60;99.90;;;;;;4999718;28;20081;-83
2021/06/18 07:43:05;;;;;;;15.57;3.35;;;16.60;99.90;;;;;;5003605;28;20046;-84
2021/06/18 07:45:32;;;;;;;18.38;3.95;;;16.70;99.90;;;;;;4988914;28;20080;-81
2021/06/18 07:47:58;;;;;;;15.32;3.55;;;16.80;99.90;;;;;;4995583;28;20057;-81
2021/06/18 07:50:26;;;;;;;13.20;3.53;;;16.80;99.90;;;;;;4994504;28;20472;-81
2021/06/18 07:52:52;;;;;;;17.48;4.60;;;16.90;99.90;;;;;;4995649;28;20109;-82
2021/06/18 07:55:21;;;;;;;15.82;4.47;;;17.00;99.90;;;;;;4982894;28;20045;-82
2021/06/18 07:57:50;;;;;;;17.48;4.80;;;17.20;99.90;;;;;;4984180;28;20054;-82
2021/06/18 08:00:18;;;;;;;16.75;5.65;;;17.20;99.90;;;;;;4996691;28;20504;-84
2021/06/18 08:02:46;;;;;;;16.45;5.43;;;17.10;99.90;;;;;;5002905;28;20091;-82
2021/06/18 08:05:13;;;;;;;22.17;6.07;;;17.20;99.90;;;;;;5005963;28;20409;-82
2021/06/18 08:07:42;;;;;;;20.30;6.07;;;17.20;99.90;;;;;;5011572;28;20057;-87
2021/06/18 08:10:13;;;;;;;16.50;5.07;;;17.30;99.90;;;;;;4993232;28;20054;-81
2021/06/18 08:12:46;;;;;;;15.73;5.38;;;17.30;99.90;;;;;;4986713;28;20105;-83
2021/06/18 08:15:13;;;;;;;19.48;5.90;;;17.40;99.90;;;;;;4998857;28;20046;-84
2021/06/18 08:17:41;;;;;;;20.55;6.35;;;17.40;99.90;;;;;;4992390;28;20516;-86
2021/06/18 08:20:10;;;;;;;22.52;6.97;;;17.40;99.90;;;;;;4996514;28;20042;-82
2021/06/18 08:22:38;;;;;;;16.77;6.03;;;17.40;99.90;;;;;;4981980;28;20075;-83
2021/06/18 08:25:06;;;;;;;22.05;5.90;;;17.50;99.90;;;;;;4988985;28;20050;-83
2021/06/18 08:27:33;;;;;;;15.88;6.10;;;17.50;99.90;;;;;;4986567;28;20101;-82
2021/06/18 08:30:00;;;;;;;18.38;7.05;;;17.60;99.90;;;;;;5004830;28;20050;-83
2021/06/18 08:32:47;;;;;;;19.30;6.15;;;17.60;99.90;;;;;;5015187;28;20046;-82
2021/06/18 08:35:15;;;;;;;17.95;6.55;;;17.60;99.90;;;;;;5025798;28;20069;-82
2021/06/18 08:37:42;;;;;;;18.77;6.63;;;17.60;99.90;;;;;;5023092;28;20057;-85
2021/06/18 08:40:10;;;;;;;17.48;6.72;;;17.70;99.90;;;;;;5018861;28;20516;-82
2021/06/18 08:42:39;;;;;;;17.38;5.97;;;17.70;99.90;;;;;;5023447;28;20061;-85
2021/06/18 08:45:08;;;;;;;21.85;6.90;;;17.70;99.90;;;;;;5026054;28;20111;-85
2021/06/18 08:47:36;;;;;;;22.63;6.90;;;17.80;99.90;;;;;;5023560;28;20054;-84
2021/06/18 08:50:05;;;;;;;12.85;5.90;;;17.90;99.90;;;;;;5020076;28;20496;-82
2021/06/18 08:52:36;;;;;;;19.33;6.53;;;17.90;99.90;;;;;;5020872;28;20083;-83
2021/06/18 08:55:03;;;;;;;14.70;5.78;;;17.80;99.90;;;;;;5027773;28;20103;-82
2021/06/18 08:57:30;;;;;;;20.08;7.00;;;17.80;99.90;;;;;;5024060;28;20052;-84
2021/06/18 08:59:58;;;;;;;13.68;7.03;;;17.80;99.90;;;;;;5015076;28;20051;-83
2021/06/18 09:02:25;;;;;;;17.88;8.00;;;17.80;99.90;;;;;;5027499;28;20045;-84
2021/06/18 09:05:10;;;;;;;18.88;8.25;;;17.80;99.90;;;;;;5027731;28;20061;-84
2021/06/18 09:07:47;;;;;;;19.60;8.40;;;17.80;99.90;;;;;;5021744;28;20504;-84
2021/06/18 09:10:27;;;;;;;17.50;8.70;;;17.80;99.90;;;;;;5022263;28;20124;-83
2021/06/18 09:13:23;;;;;;;20.25;9.15;;;17.80;99.90;;;;;;5027852;28;20053;-85
2021/06/18 09:15:53;;;;;;;21.73;9.02;;;17.80;99.90;;;;;;5026230;28;20522;-82
2021/06/18 09:18:36;;;;;;;19.00;7.97;;;17.80;99.90;;;;;;5025708;28;20038;-84
2021/06/18 09:21:02;;;;;;;20.95;7.70;;;17.70;99.90;;;;;;5020901;28;20056;-82
2021/06/18 09:23:33;;;;;;;16.83;7.95;;;17.70;99.90;;;;;;5021831;28;20488;-85
2021/06/18 09:26:33;;;;;;;21.80;8.13;;;17.90;99.90;;;;;;5018520;28;20062;-85
2021/06/18 09:29:13;;;;;;;22.95;7.72;;;17.90;99.90;;;;;;5014897;28;20065;-83
2021/06/18 09:31:53;;;;;;;20.63;8.05;;;17.90;99.90;;;;;;5017123;28;20524;-83
2021/06/18 09:34:59;;;;;;;19.48;7.72;;;17.80;99.90;;;;;;5003317;28;20046;-82
2021/06/18 09:37:31;;;;;;;18.98;7.63;;;17.90;99.90;;;;;;5005051;28;20050;-82
2021/06/18 09:40:17;;;;;;;22.05;7.43;;;18.10;99.90;;;;;;5004795;28;20587;-83
2021/06/18 09:42:55;;;;;;;20.00;7.40;;;18.10;99.90;;;;;;5010000;28;20053;-83
2021/06/18 09:45:28;;;;;;;16.50;6.85;;;18.10;99.90;;;;;;4998195;28;20424;-83
2021/06/18 09:48:33;;;;;;;19.98;7.03;;;18.10;99.90;;;;;;5005501;28;20046;-82
2021/06/18 09:51:02;;;;;;;16.63;6.28;;;18.10;99.90;;;;;;4896335;29;20139;-81
2021/06/18 09:53:31;;;;;;;16.27;6.38;;;18.20;99.90;;;;;;4891569;29;20527;-82
2021/06/18 09:56:05;;;;;;;19.10;7.68;;;18.20;99.90;;;;;;4895239;29;20120;-84
2021/06/18 09:58:44;;;;;;;16.88;7.30;;;18.10;99.90;;;;;;4916727;29;20047;-83
2021/06/18 10:01:24;;;;;;;15.20;6.07;;;18.20;99.90;;;;;;4930050;29;20056;-82
2021/06/18 10:04:07;;;;;;;14.43;6.50;;;18.20;99.90;;;;;;4937201;29;20575;-83
2021/06/18 10:06:35;;;;;;;16.88;6.40;;;18.30;99.90;;;;;;4925792;29;20471;-84
2021/06/18 10:09:04;;;;;;;;;;;18.40;99.90;;;;;;4926163;29;20103;-84
2021/06/18 10:11:32;;;;;;;;;;;18.50;99.90;;;;;;4911475;29;19958;-83
2021/06/18 10:13:59;;;;;;;12.83;5.03;;;18.60;99.90;;;;;;4931321;29;19926;-85
2021/06/18 10:16:27;;;;;;;13.77;5.50;;;18.80;99.90;;;;;;4928065;29;20688;-82
2021/06/18 10:18:58;;;;;;;13.82;5.55;;;19.00;99.90;;;;;;4929915;29;20047;-83
2021/06/18 10:21:28;;;;;;;14.48;6.22;;;19.10;99.90;;;;;;4929180;29;20044;-82
2021/06/18 10:23:59;;;;;;;14.13;5.20;;;19.10;99.90;;;;;;4928188;28;20142;-83
2021/06/18 10:26:27;;;;;;;12.57;5.20;;;19.20;99.90;;;;;;5004766;28;20092;-84
2021/06/18 10:29:02;;;;;;;9.63;5.35;;;19.30;99.90;;;;;;5002398;28;20053;-86
2021/06/18 10:31:31;;;;;;;15.25;5.95;;;19.40;99.90;;;;;;5011058;28;20055;-83
2021/06/18 10:34:15;;;;;;;9.95;5.25;;;19.30;99.90;;;;;;5024855;28;20061;-87
2021/06/18 10:36:44;;;;;;;13.38;5.90;;;19.30;99.90;;;;;;5019094;28;20046;-84
2021/06/18 10:39:15;;;;;;;12.65;5.30;;;19.40;99.90;;;;;;5020986;28;20075;-85
2021/06/18 10:41:45;;;;;;;13.23;5.75;;;19.50;99.90;;;;;;5019685;28;20519;-86
2021/06/18 10:44:33;;;;;;;13.05;6.07;;;19.70;99.90;;;;;;5021065;28;20448;-90
2021/06/18 10:47:02;;;;;;;10.52;5.45;;;19.80;99.90;;;;;;5025549;28;20042;-85
2021/06/18 10:49:39;;;;;;;;;;;19.80;99.90;;;;;;5025181;28;20069;-84
2021/06/18 10:52:20;;;;;;;14.85;6.25;;;19.70;99.90;;;;;;5015176;28;20012;-83
2021/06/18 10:55:00;;;;;;;18.13;6.95;;;19.50;99.90;;;;;;5019979;28;20108;-84
2021/06/18 10:57:29;;;;;;;13.23;6.63;;;19.40;99.90;;;;;;5021027;28;20100;-84
2021/06/18 11:00:09;;;;;;;18.50;6.53;;;19.50;99.90;;;;;;5021607;28;20045;-88
2021/06/18 11:02:40;;;;;;;13.55;6.72;;;19.60;99.90;;;;;;5021300;28;20149;-85
2021/06/18 11:05:25;;;;;;;13.40;6.65;;;19.50;99.90;;;;;;5012279;28;20041;-84
2021/06/18 11:08:19;;;;;;;14.68;6.10;;;19.60;99.90;;;;;;5016359;28;20050;-83
2021/06/18 11:11:26;;;;;;;15.98;6.38;;;19.50;99.90;;;;;;5015056;28;20057;-82
2021/06/18 11:14:01;;;;;;;10.65;5.88;;;19.50;99.90;;;;;;5022604;28;20037;-83
2021/06/18 11:16:34;;;;;;;10.23;5.78;;;19.50;99.90;;;;;;5030537;28;20107;-84
2021/06/18 11:19:21;;;;;;;9.38;5.25;;;19.60;99.90;;;;;;5028325;28;20742;-85
2021/06/18 11:21:50;;;;;;;8.45;5.30;;;19.60;99.90;;;;;;5028151;28;20049;-83
2021/06/18 11:24:33;;;;;;;10.55;5.28;;;19.70;99.90;;;;;;5024660;28;20569;-83
2021/06/18 11:27:23;;;;;;;12.43;4.80;;;19.70;99.90;;;;;;5028890;28;20077;-83
2021/06/18 11:30:29;;;;;;;8.43;4.57;;;19.80;99.90;;;;;;5029571;28;20119;-88
2021/06/18 11:32:57;;;;;;;12.57;5.03;;;20.00;99.90;;;;;;5019267;28;20078;-85
2021/06/18 11:35:34;;;;;;;11.82;5.10;;;20.10;99.90;;;;;;5027321;28;20050;-87
2021/06/18 11:38:18;;;;;;;11.38;4.68;;;20.20;99.90;;;;;;5036117;28;20049;-85
2021/06/18 11:40:53;;;;;;;14.45;4.88;;;20.10;99.90;;;;;;5025225;28;20060;-84
2021/06/18 11:43:27;;;;;;;12.23;4.78;;;20.30;99.90;;;;;;5023460;28;20092;-83
2021/06/18 11:45:56;;;;;;;12.25;4.15;;;20.30;99.90;;;;;;5023499;28;20049;-82
2021/06/18 11:48:24;;;;;;;7.65;3.95;;;20.30;99.90;;;;;;5019605;28;20050;-82
2021/06/18 11:50:51;;;;;;;8.90;4.28;;;20.30;99.90;;;;;;5016312;28;20081;-83
2021/06/18 11:53:19;;;;;;;13.80;4.30;;;20.30;99.90;;;;;;5009690;28;20113;-82
2021/06/18 11:55:57;;;;;;;12.23;3.88;;;20.30;99.90;;;;;;5028982;28;20459;-82
2021/06/18 11:58:32;;;;;;;12.27;4.60;;;20.40;99.90;;;;;;5027055;28;20045;-81
2021/06/18 12:01:17;;;;;;;14.10;4.40;;;20.40;99.90;;;;;;5031556;28;20048;-84
2021/06/18 12:03:46;;;;;;;9.13;3.85;;;20.40;99.90;;;;;;5030357;28;20056;-82
2021/06/18 12:06:20;;;;;;;15.48;3.92;;;20.40;99.90;;;;;;5038360;28;20408;-83
2021/06/18 12:09:06;;;;;;;7.63;3.92;;;20.40;99.90;;;;;;5028324;28;20049;-82
2021/06/18 12:11:37;;;;;;;10.75;3.75;;;20.50;99.90;;;;;;5039717;28;20089;-83
2021/06/18 12:14:05;;;;;;;9.98;3.50;;;20.50;99.90;;;;;;5033443;28;20057;-82
2021/06/18 12:16:37;;;;;;;8.40;4.05;;;20.60;99.90;;;;;;5028194;28;20555;-84
2021/06/18 12:19:24;;;;;;;9.55;3.80;;;20.70;99.90;;;;;;5036533;28;20060;-83
2021/06/18 12:22:09;;;;;;;13.38;3.95;;;20.70;99.90;;;;;;5033543;28;20104;-82
2021/06/18 12:24:38;;;;;;;10.13;3.85;;;20.80;99.90;;;;;;5034786;28;20151;-84
2021/06/18 12:27:09;;;;;;;9.27;3.58;;;20.80;99.90;;;;;;5039903;28;20057;-85
2021/06/18 12:29:48;;;;;;;11.88;4.10;;;20.90;99.90;;;;;;5039480;28;20079;-83
2021/06/18 12:32:16;;;;;;;9.07;3.47;;;20.90;99.90;;;;;;5036297;28;20377;-85
2021/06/18 12:34:47;;;;;;;5.85;3.00;;;20.70;99.90;;;;;;5037816;28;20061;-84
2021/06/18 12:37:15;;;;;;;6.93;3.25;;;20.70;99.90;;;;;;5030842;28;20503;-83
2021/06/18 12:39:48;;;;;;;9.90;4.28;;;20.80;99.90;;;;;;5040306;28;20065;-85
2021/06/18 12:42:39;;;;;;;6.20;3.83;;;20.90;99.90;;;;;;5033867;28;20447;-83
2021/06/18 12:45:38;;;;;;;13.30;4.18;;;21.10;99.90;;;;;;5040294;28;20072;-89
2021/06/18 12:48:14;;;;;;;10.27;3.90;;;21.20;99.90;;;;;;4942526;28;20043;-84
2021/06/18 12:50:44;;;;;;;13.32;3.97;;;21.10;99.90;;;;;;4962640;28;20053;-83
2021/06/18 12:53:13;;;;;;;10.88;3.97;;;21.10;99.90;;;;;;4956911;28;20101;-80
2021/06/18 12:55:43;;;;;;;10.52;4.00;;;21.10;99.90;;;;;;4947759;28;20296;-82
2021/06/18 12:58:18;;;;;;;12.25;3.83;;;21.20;99.90;;;;;;4962334;28;20125;-82
2021/06/18 13:00:52;;;;;;;12.25;3.83;;;21.20;99.90;;;;;;4961799;28;20893;-80
2021/06/18 13:03:49;;;;;;;11.95;3.50;;;21.40;99.90;;;;;;4962584;28;20125;-82
2021/06/18 13:06:17;;;;;;;13.90;3.97;;;21.50;99.90;;;;;;4958873;28;20050;-84
2021/06/18 13:08:53;;;;;;;14.80;4.30;;;21.50;99.90;;;;;;4958166;28;20055;-83
2021/06/18 13:11:35;;;;;;;16.55;4.20;;;21.40;99.90;;;;;;4942922;28;20643;-81
2021/06/18 13:14:18;;;;;;;10.82;3.75;;;21.40;99.90;;;;;;4961893;28;20147;-82
2021/06/18 13:16:56;;;;;;;12.75;3.83;;;21.50;99.90;;;;;;4961573;28;20050;-81
2021/06/18 13:19:46;;;;;;;9.27;4.03;;;21.50;99.90;;;;;;4958852;28;20154;-83
2021/06/18 13:22:16;;;;;;;14.68;3.67;;;21.30;99.90;;;;;;4952249;28;20054;-81
2021/06/18 13:24:48;;;;;;;14.60;3.95;;;21.10;99.90;;;;;;4998448;28;20107;-81
2021/06/18 13:27:16;;;;;;;12.45;3.33;;;21.00;99.90;;;;;;5050006;28;20083;-82
2021/06/18 13:30:00;;;;;;;9.50;3.93;;;21.10;99.90;;;;;;5048654;28;20866;-82
2021/06/18 13:32:42;;;;;;;8.95;3.78;;;21.20;99.90;;;;;;5032628;28;20753;-82
2021/06/18 13:35:17;;;;;;;8.40;3.22;;;21.40;99.90;;;;;;5039321;28;20140;-81
2021/06/18 13:38:01;;;;;;;9.38;3.60;;;21.60;99.90;;;;;;5031336;28;20052;-83
2021/06/18 13:40:39;;;;;;;8.18;3.25;;;21.70;99.90;;;;;;5029479;28;20135;-87
2021/06/18 13:43:07;;;;;;;;;;;22.00;99.90;;;;;;5011523;28;20094;-86
2021/06/18 13:45:34;;;;;;;7.07;3.47;;;22.00;99.90;;;;;;5028203;28;19932;-84
2021/06/18 13:48:02;;;;;;;10.02;3.58;;;22.20;99.90;;;;;;5037568;28;20486;-83
2021/06/18 13:50:36;;;;;;;7.80;3.33;;;22.00;99.90;;;;;;5027923;28;20055;-87
2021/06/18 13:53:03;;;;;;;8.93;3.45;;;22.00;99.90;;;;;;5028805;28;20045;-83
2021/06/18 13:55:30;;;;;;;7.85;3.58;;;21.80;99.90;;;;;;5028938;28;20389;-83
2021/06/18 13:57:57;;;;;;;9.73;3.35;;;21.70;99.90;;;;;;5020920;28;20054;-86
2021/06/18 14:00:24;;;;;;;11.85;3.92;;;21.70;99.90;;;;;;5025198;28;20068;-85
2021/06/18 14:02:58;;;;;;;10.90;4.10;;;21.90;99.90;;;;;;5024878;28;20436;-84
2021/06/18 14:05:26;;;;;;;7.78;3.13;;;22.10;99.90;;;;;;5033633;28;20040;-83
2021/06/18 14:07:53;;;;;;;8.07;3.60;;;22.20;99.90;;;;;;5030311;28;20045;-88
2021/06/18 14:10:20;;;;;;;7.43;3.70;;;22.30;99.90;;;;;;5025723;28;20084;-87
2021/06/18 14:12:47;;;;;;;6.28;3.55;;;22.30;99.90;;;;;;5029860;28;20108;-89
2021/06/18 14:15:19;;;;;;;8.77;4.15;;;22.20;99.90;;;;;;5020645;28;20055;-88
2021/06/18 14:17:47;;;;;;;10.20;4.07;;;22.00;99.90;;;;;;5026699;28;20049;-84
2021/06/18 14:20:15;;;;;;;9.37;4.17;;;21.90;99.90;;;;;;5023404;28;20048;-86
2021/06/18 14:22:42;;;;;;;7.93;3.50;;;21.90;99.90;;;;;;5024616;28;20127;-84
2021/06/18 14:25:09;;;;;;;5.32;3.30;;;21.90;99.90;;;;;;5027153;28;20089;-84
2021/06/18 14:27:37;;;;;;;5.15;3.33;;;21.90;99.90;;;;;;5026008;28;20057;-84
2021/06/18 14:30:07;;;;;;;5.63;3.63;;;21.90;99.90;;;;;;5028362;28;20049;-83
2021/06/18 14:32:36;;;;;;;9.80;3.75;;;22.00;99.90;;;;;;5026032;28;20076;-85
2021/06/18 14:35:06;;;;;;;5.88;3.20;;;22.10;99.90;;;;;;5028610;28;20095;-86
2021/06/18 14:37:34;;;;;;;12.80;3.97;;;22.10;99.90;;;;;;5024575;28;20389;-84
2021/06/18 14:40:03;;;;;;;9.50;3.38;;;22.20;99.90;;;;;;5026793;28;20115;-84
2021/06/18 14:42:30;;;;;;;6.25;3.15;;;22.20;99.90;;;;;;5026060;28;20537;-83
2021/06/18 14:44:57;;;;;;;11.75;3.65;;;22.30;99.90;;;;;;5044491;28;20053;-83
2021/06/18 14:47:24;;;;;;;7.93;3.75;;;22.20;99.90;;;;;;5025473;28;20554;-85
2021/06/18 14:49:51;;;;;;;7.85;3.83;;;22.10;99.90;;;;;;5023917;28;20060;-84
2021/06/18 14:52:18;;;;;;;8.20;3.80;;;22.20;99.90;;;;;;5024256;28;20419;-88
2021/06/18 14:54:45;;;;;;;6.55;3.65;;;22.10;99.90;;;;;;5033373;28;20500;-87
2021/06/18 14:57:12;;;;;;;7.50;3.63;;;22.10;99.90;;;;;;5033229;28;20110;-82
2021/06/18 14:59:39;;;;;;;6.85;4.35;;;22.00;99.90;;;;;;5027611;28;20052;-84
2021/06/18 15:02:08;;;;;;;9.95;4.43;;;22.00;99.90;;;;;;5037147;28;20057;-82
2021/06/18 15:04:35;;;;;;;6.82;3.90;;;22.00;99.90;;;;;;5033436;28;20077;-83
2021/06/18 15:07:02;;;;;;;7.53;3.97;;;21.80;99.90;;;;;;5022393;28;20467;-87
2021/06/18 15:09:30;;;;;;;5.85;3.97;;;21.70;99.90;;;;;;5044408;28;20079;-86
2021/06/18 15:11:56;;;;;;;12.15;3.85;;;21.60;99.90;;;;;;5024735;28;20045;-83
2021/06/18 15:14:26;;;;;;;5.60;3.50;;;21.60;99.90;;;;;;5026309;28;20498;-81
2021/06/18 15:16:54;;;;;;;6.57;3.58;;;21.70;99.90;;;;;;5026581;28;20107;-87
2021/06/18 15:19:21;;;;;;;7.95;3.78;;;21.60;99.90;;;;;;5037576;28;20103;-83
2021/06/18 15:21:48;;;;;;;9.07;4.13;;;21.70;99.90;;;;;;5021464;28;20502;-85
2021/06/18 15:24:15;;;;;;;7.40;3.22;;;21.90;99.90;;;;;;5024614;28;20041;-88
2021/06/18 15:26:42;;;;;;;7.70;3.03;;;22.10;99.90;;;;;;5029505;28;20064;-86
2021/06/18 15:29:09;;;;;;;7.72;3.63;;;22.30;99.90;;;;;;5023067;28;20053;-88
2021/06/18 15:31:36;;;;;;;7.18;3.47;;;22.30;99.90;;;;;;5031309;28;20045;-83
2021/06/18 15:34:03;;;;;;;6.80;3.30;;;22.40;99.90;;;;;;5043402;28;20217;-82
2021/06/18 15:36:30;;;;;;;9.68;4.03;;;22.40;99.90;;;;;;5031087;28;20400;-83
2021/06/18 15:38:57;;;;;;;9.65;3.60;;;22.20;99.90;;;;;;5034797;28;20045;-85
2021/06/18 15:41:24;;;;;;;10.82;3.85;;;22.10;99.90;;;;;;5046727;28;20057;-83
2021/06/18 15:43:51;;;;;;;5.38;3.35;;;22.20;99.90;;;;;;5034410;28;20114;-88
2021/06/18 15:46:18;;;;;;;7.20;3.78;;;22.30;99.90;;;;;;5039260;28;20450;-83
2021/06/18 15:48:45;;;;;;;7.95;3.03;;;22.30;99.90;;;;;;5048759;28;20049;-83
2021/06/18 15:51:16;;;;;;;10.43;3.42;;;22.20;99.90;;;;;;5044154;28;20051;-82
2021/06/18 15:53:44;;;;;;;29.63;4.80;;;22.30;99.90;;;;;;5033115;28;20076;-87
2021/06/18 15:56:11;;;;;;;7.90;3.95;;;22.10;99.90;;;;;;5039912;28;20102;-85
2021/06/18 15:58:38;;;;;;;10.82;4.18;;;22.20;99.90;;;;;;5050100;28;20045;-87
2021/06/18 16:01:05;;;;;;;8.77;3.97;;;22.10;99.90;;;;;;5034548;28;20053;-84
2021/06/18 16:03:35;;;;;;;9.40;3.67;;;22.10;99.90;;;;;;5031258;28;20091;-87
2021/06/18 16:06:06;;;;;;;9.07;3.80;;;22.00;99.90;;;;;;5034092;28;20306;-83
2021/06/18 16:08:33;;;;;;;6.57;3.13;;;21.80;99.90;;;;;;5036999;28;20463;-83
2021/06/18 16:11:01;;;;;;;10.27;3.17;;;21.70;99.90;;;;;;5046172;28;20077;-83
2021/06/18 16:13:28;;;;;;;7.72;3.10;;;21.70;99.90;;;;;;5037812;28;20048;-83
2021/06/18 16:15:55;;;;;;;6.75;3.38;;;21.60;99.90;;;;;;5043289;28;20103;-83
2021/06/18 16:18:22;;;;;;;8.52;3.22;;;21.60;99.90;;;;;;5037912;28;20584;-86
2021/06/18 16:20:49;;;;;;;8.43;3.10;;;21.60;99.90;;;;;;5049021;28;20472;-83
2021/06/18 16:23:16;;;;;;;5.10;2.83;;;21.50;99.90;;;;;;5046121;28;20111;-82
2021/06/18 16:25:45;;;;;;;;;;;21.70;99.90;;;;;;5050094;28;20045;-83
2021/06/18 16:28:12;;;;;;;8.70;2.97;;;21.80;99.90;;;;;;5037461;28;19990;-88
2021/06/18 16:30:39;;;;;;;7.82;3.55;;;21.80;99.90;;;;;;5050128;28;20052;-85
2021/06/18 16:33:06;;;;;;;8.73;3.10;;;21.90;99.90;;;;;;5045343;28;20057;-85
2021/06/18 16:35:33;;;;;;;6.40;2.63;;;21.90;99.90;;;;;;5045355;28;20048;-84
2021/06/18 16:38:00;;;;;;;6.10;3.00;;;21.90;99.90;;;;;;5045515;28;20045;-83
2021/06/18 16:40:27;;;;;;;6.53;3.03;;;21.90;99.90;;;;;;5046213;28;20098;-85
2021/06/18 16:42:54;;;;;;;10.30;2.95;;;21.90;99.90;;;;;;5047075;28;20581;-85
2021/06/18 16:45:22;;;;;;;6.57;2.72;;;22.00;99.90;;;;;;5049988;28;20114;-84
2021/06/18 16:47:49;;;;;;;6.57;2.70;;;22.00;99.90;;;;;;5035748;28;20458;-83
2021/06/18 16:50:18;;;;;;;7.53;2.65;;;22.10;99.90;;;;;;5025608;28;20091;-84
2021/06/18 16:52:45;;;;;;;;;;;22.10;99.90;;;;;;5031112;28;20103;-84
2021/06/18 16:55:12;;;;;;;4.75;2.53;;;22.20;99.90;;;;;;5047803;28;20010;-85
2021/06/18 16:57:39;;;;;;;5.15;2.20;;;22.40;99.90;;;;;;5030936;28;20053;-89
2021/06/18 17:00:08;;;;;;;3.80;2.00;;;22.40;99.90;;;;;;5038363;28;20063;-86
2021/06/18 17:02:36;;;;;;;5.05;2.28;;;22.30;99.90;;;;;;5049533;28;20060;-84
2021/06/18 17:05:03;;;;;;;7.13;2.42;;;22.30;99.90;;;;;;5052303;28;20049;-85
2021/06/18 17:07:33;;;;;;;4.55;2.15;;;22.40;99.90;;;;;;5049383;28;20430;-85
2021/06/18 17:10:00;;;;;;;5.15;2.42;;;22.60;99.90;;;;;;5051082;28;20049;-88
2021/06/18 17:12:44;;;;;;;4.82;2.38;;;22.60;99.90;;;;;;5038423;28;20056;-84
2021/06/18 17:15:12;;;;;;;5.65;2.30;;;22.50;99.90;;;;;;5045681;28;20127;-85
2021/06/18 17:17:39;;;;;;;4.95;2.45;;;22.50;99.90;;;;;;5045434;28;20053;-84
2021/06/18 17:20:09;;;;;;;5.97;2.58;;;22.50;99.90;;;;;;5047895;28;20088;-87
2021/06/18 17:22:37;;;;;;;6.15;2.65;;;22.40;99.90;;;;;;5041579;28;20049;-86
2021/06/18 17:25:06;;;;;;;6.93;2.70;;;22.30;99.90;;;;;;5020288;28;20053;-84
2021/06/18 17:27:33;;;;;;;5.78;2.58;;;22.30;99.90;;;;;;5021642;28;20095;-83
2021/06/18 17:30:04;;;;;;;6.88;2.45;;;22.20;99.90;;;;;;5024611;28;20041;-84
2021/06/18 17:32:31;;;;;;;6.53;2.50;;;22.20;99.90;;;;;;5020862;28;20091;-84
2021/06/18 17:34:58;;;;;;;8.63;2.80;;;22.30;99.90;;;;;;5031559;28;20099;-85
2021/06/18 17:37:25;;;;;;;6.22;2.78;;;22.10;99.90;;;;;;5028344;28;20107;-83
2021/06/18 17:39:51;;;;;;;5.03;2.83;;;21.90;99.90;;;;;;5045880;28;20503;-84
2021/06/18 17:42:18;;;;;;;6.28;2.65;;;21.80;99.90;;;;;;5030433;28;20584;-84
2021/06/18 17:44:47;;;;;;;6.50;3.03;;;21.70;99.90;;;;;;5029592;28;20154;-84
2021/06/18 17:47:14;;;;;;;6.97;2.75;;;21.50;99.90;;;;;;5031716;28;20581;-84
2021/06/18 17:49:41;;;;;;;8.57;3.22;;;21.40;99.90;;;;;;5052679;28;20182;-84
2021/06/18 17:52:08;;;;;;;6.72;2.55;;;21.00;99.90;;;;;;5044227;28;20061;-84
2021/06/18 17:54:35;;;;;;;6.13;2.78;;;20.90;99.90;;;;;;5030152;28;20560;-84
2021/06/18 17:57:02;;;;;;;4.00;2.45;;;20.70;99.90;;;;;;5026607;28;20049;-84
2021/06/18 17:59:29;;;;;;;7.70;2.90;;;20.40;99.90;;;;;;5026314;28;20099;-88
2021/06/18 18:01:56;;;;;;;5.60;2.80;;;20.30;99.90;;;;;;5026699;28;20044;-86
2021/06/18 18:04:23;;;;;;;8.48;2.90;;;20.20;99.90;;;;;;5029451;28;20118;-84
2021/06/18 18:06:50;;;;;;;7.05;2.80;;;20.10;99.90;;;;;;5026093;28;20068;-87
2021/06/18 18:09:17;;;;;;;6.38;2.95;;;20.00;99.90;;;;;;5023720;28;20079;-83
2021/06/18 18:11:44;;;;;;;11.85;5.30;;;19.80;99.90;;;;;;5042247;28;20519;-84
2021/06/18 18:14:11;;;;;;;7.78;3.10;;;19.80;99.90;;;;;;5037779;28;20512;-84
2021/06/18 18:16:38;;;;;;;8.82;3.33;;;19.80;99.90;;;;;;5033519;28;20052;-83
2021/06/18 18:19:05;;;;;;;7.28;3.17;;;19.70;99.90;;;;;;5025358;28;20099;-85
2021/06/18 18:21:32;;;;;;;7.63;3.80;;;19.70;99.90;;;;;;5044936;28;20091;-85
2021/06/18 18:24:02;;;;;;;5.70;2.92;;;19.70;99.90;;;;;;5047859;28;20568;-83
2021/06/18 18:26:32;;;;;;;5.88;2.90;;;19.70;99.90;;;;;;5047004;28;20091;-85
2021/06/18 18:28:59;;;;;;;6.20;2.70;;;19.70;99.90;;;;;;5030725;28;20487;-87
2021/06/18 18:31:27;;;;;;;6.97;2.70;;;19.70;99.90;;;;;;5028775;28;20059;-85
2021/06/18 18:33:55;;;;;;;7.25;2.83;;;19.70;99.90;;;;;;5039267;28;20495;-83
2021/06/18 18:36:22;;;;;;;4.93;2.50;;;19.70;99.90;;;;;;5022315;28;20049;-86
2021/06/18 18:38:49;;;;;;;5.45;2.47;;;19.60;99.90;;;;;;5030285;28;20098;-83
2021/06/18 18:41:16;;;;;;;7.35;2.67;;;19.60;99.90;;;;;;5026003;28;20123;-85
2021/06/18 18:43:43;;;;;;;4.50;2.80;;;19.60;99.90;;;;;;5027422;28;20088;-83
2021/06/18 18:46:10;;;;;;;4.85;2.58;;;19.60;99.90;;;;;;5025969;28;20049;-86
2021/06/18 18:48:37;;;;;;;4.90;2.33;;;19.80;99.90;;;;;;5030485;28;20060;-84
2021/06/18 18:51:04;;;;;;;5.78;2.47;;;20.00;99.90;;;;;;5044302;28;20040;-88
2021/06/18 18:53:31;;;;;;;6.38;2.13;;;20.20;99.90;;;;;;5020991;28;20107;-84
2021/06/18 18:55:58;;;;;;;6.32;2.38;;;20.50;99.90;;;;;;5050343;28;20052;-87
2021/06/18 18:58:39;;;;;;;4.72;2.17;;;20.70;99.90;;;;;;5027302;28;20040;-84
2021/06/18 19:01:06;;;;;;;5.43;2.42;;;20.70;99.90;;;;;;5016827;28;20052;-83
2021/06/18 19:03:33;;;;;;;4.65;2.20;;;20.80;99.90;;;;;;5030206;28;20127;-85
2021/06/18 19:06:00;;;;;;;6.60;2.40;;;20.80;99.90;;;;;;5025029;28;20045;-84
2021/06/18 19:08:27;;;;;;;3.33;1.90;;;20.80;99.90;;;;;;5043132;28;20564;-82
2021/06/18 19:10:54;;;;;;;2.55;1.98;;;20.60;99.90;;;;;;5040070;28;20073;-82
2021/06/18 19:13:21;;;;;;;3.67;1.63;;;20.40;99.90;;;;;;5021613;28;20441;-82
2021/06/18 19:15:48;;;;;;;3.42;1.83;;;20.20;99.90;;;;;;5042514;28;20091;-81
2021/06/18 19:18:15;;;;;;;5.57;2.05;;;20.10;99.90;;;;;;5044183;28;20052;-82
2021/06/18 19:20:42;;;;;;;4.38;2.00;;;19.90;99.90;;;;;;5021187;28;20045;-83
2021/06/18 19:23:09;;;;;;;2.97;2.00;;;19.80;99.90;;;;;;5025925;28;20050;-84
2021/06/18 19:25:37;;;;;;;3.45;2.00;;;19.70;99.90;;;;;;5042576;28;20106;-84
2021/06/18 19:28:04;;;;;;;5.03;2.10;;;19.70;99.90;;;;;;5021790;28;20520;-83
2021/06/18 19:30:31;;;;;;;4.20;2.25;;;19.60;99.90;;;;;;5040265;28;20443;-83
2021/06/18 19:33:02;;;;;;;3.05;2.35;;;19.50;99.90;;;;;;5036738;28;20048;-83
2021/06/18 19:35:31;;;;;;;4.53;2.28;;;19.50;99.90;;;;;;5043579;28;20076;-83
2021/06/18 19:37:58;;;;;;;3.90;1.70;;;19.40;99.90;;;;;;5024157;28;20115;-81
2021/06/18 19:40:25;;;;;;;4.35;1.73;;;19.40;99.90;;;;;;5042985;28;20048;-83
2021/06/18 19:42:52;;;;;;;3.97;1.90;;;19.30;99.90;;;;;;5023811;28;20041;-83
2021/06/18 19:45:20;;;;;;;6.20;2.20;;;19.30;99.90;;;;;;5038171;28;20080;-83
2021/06/18 19:47:49;;;;;;;4.28;1.83;;;19.30;99.90;;;;;;5029331;28;20454;-82
2021/06/18 19:50:18;;;;;;;4.90;2.00;;;19.20;99.90;;;;;;5048993;28;20057;-84
2021/06/18 19:52:46;;;;;;;6.03;2.28;;;19.10;99.90;;;;;;5025758;28;20060;-84
2021/06/18 19:55:14;;;;;;;5.78;2.00;;;19.10;99.90;;;;;;5041469;28;20119;-83
2021/06/18 19:57:41;;;;;;;3.90;2.00;;;19.00;99.90;;;;;;5026060;28;20053;-84
2021/06/18 20:00:11;;;;;;;4.03;2.10;;;19.00;99.90;;;;;;5039359;28;20275;-82
2021/06/18 20:02:39;;;;;;;4.32;2.20;;;18.90;99.90;;;;;;5031190;28;20068;-83
2021/06/18 20:05:07;;;;;;;4.82;1.90;;;18.80;99.90;;;;;;5038325;28;20098;-84
2021/06/18 20:07:34;;;;;;;6.20;2.65;;;18.80;99.90;;;;;;5042749;28;20101;-83
2021/06/18 20:10:01;;;;;;;4.07;2.05;;;18.80;99.90;;;;;;5032556;28;20057;-83
2021/06/18 20:12:30;;;;;;;2.72;2.10;;;18.70;99.90;;;;;;5044423;28;20041;-84
2021/06/18 20:14:57;;;;;;;6.43;2.70;;;18.70;99.90;;;;;;5024073;28;20052;-84
2021/06/18 20:17:24;;;;;;;6.85;2.53;;;18.60;99.90;;;;;;5041508;28;20542;-82
2021/06/18 20:19:51;;;;;;;4.40;2.88;;;18.60;99.90;;;;;;5041214;28;20112;-82
2021/06/18 20:22:18;;;;;;;5.43;2.85;;;18.60;99.90;;;;;;5028747;28;20115;-82
2021/06/18 20:24:45;;;;;;;5.63;2.60;;;18.50;99.90;;;;;;5027191;28;20486;-83
2021/06/18 20:27:12;;;;;;;7.35;2.55;;;18.50;99.90;;;;;;5029407;28;20471;-82
2021/06/18 20:29:39;;;;;;;4.75;2.50;;;18.40;99.90;;;;;;5044980;28;20045;-82
2021/06/18 20:32:06;;;;;;;5.47;2.75;;;18.30;99.90;;;;;;5027977;28;20381;-83